createdAt,value
2023-05-10T00:03:49.859Z,99.99
2023-05-10T00:11:49.313Z,99.99
2023-05-10T00:25:47.510Z,99.99
2023-05-10T00:26:47.504Z,99.99
2023-05-10T00:44:45.930Z,99.99
2023-05-10T01:00:03.168Z,99.99
2023-05-10T01:01:03.096Z,99.99
2023-05-10T01:02:03.048Z,99.99
2023-05-10T01:03:03.000Z,99.99
2023-05-10T01:04:02.834Z,99.99
2023-05-10T01:05:02.860Z,99.99
2023-05-10T01:06:02.692Z,99.99
2023-05-10T01:07:02.647Z,99.99
2023-05-10T01:08:02.525Z,99.99
2023-05-10T01:09:02.443Z,99.99
2023-05-10T01:10:02.369Z,99.99
2023-05-10T01:11:02.285Z,99.99
2023-05-10T01:12:02.227Z,99.99
2023-05-10T01:13:02.158Z,99.99
2023-05-10T01:14:02.049Z,99.99
2023-05-10T01:15:01.975Z,99.99
2023-05-10T01:16:01.936Z,99.99
2023-05-10T01:17:01.822Z,99.99
2023-05-10T01:18:01.771Z,99.99
2023-05-10T01:19:01.673Z,99.99
2023-05-10T01:20:01.582Z,99.99
2023-05-10T01:21:01.499Z,99.99
2023-05-10T01:22:01.424Z,99.99
2023-05-10T01:23:01.342Z,99.99
2023-05-10T01:24:01.268Z,99.99
2023-05-10T01:25:01.186Z,99.99
2023-05-10T01:26:01.111Z,99.99
2023-05-10T01:27:01.029Z,99.99
2023-05-10T01:28:00.954Z,99.99
2023-05-10T01:29:00.878Z,99.99
2023-05-10T01:30:14.235Z,99.99
2023-05-10T01:31:00.790Z,99.99
2023-05-10T01:32:00.658Z,99.99
2023-05-10T01:33:00.616Z,99.99
2023-05-10T01:34:00.479Z,99.99
2023-05-10T01:35:00.404Z,99.99
2023-05-10T01:36:00.327Z,99.99
2023-05-10T01:37:00.246Z,99.99
2023-05-10T01:38:00.172Z,99.99
2023-05-10T01:39:00.107Z,99.99
2023-05-10T01:40:00.018Z,99.99
2023-05-10T01:40:59.928Z,99.99
2023-05-10T01:42:00.198Z,99.99
2023-05-10T01:42:59.767Z,99.99
2023-05-10T01:43:59.693Z,99.99
2023-05-10T01:44:59.621Z,99.99
2023-05-10T01:45:59.536Z,99.99
2023-05-10T01:46:59.471Z,99.99
2023-05-10T01:47:59.478Z,99.99
2023-05-10T01:48:59.330Z,99.99
2023-05-10T01:49:59.221Z,99.99
2023-05-10T01:50:59.142Z,99.99
2023-05-10T01:51:59.058Z,99.99
2023-05-10T01:52:58.987Z,99.99
2023-05-10T01:53:58.905Z,99.99
2023-05-10T01:54:58.824Z,99.99
2023-05-10T01:55:58.745Z,99.99
2023-05-10T01:56:58.670Z,99.99
2023-05-10T01:57:58.591Z,99.99
2023-05-10T02:00:31.043Z,99.99
2023-05-10T02:01:30.943Z,99.99
2023-05-10T02:02:30.888Z,99.99
2023-05-10T02:03:30.817Z,99.99
2023-05-10T02:05:30.629Z,99.99
2023-05-10T02:07:38.355Z,99.99
2023-05-10T02:08:38.304Z,99.99
2023-05-10T02:09:38.241Z,99.99
2023-05-10T02:10:38.109Z,99.99
2023-05-10T02:11:38.232Z,99.99
2023-05-10T02:12:38.188Z,99.99
2023-05-10T02:24:39.382Z,99.99
2023-05-10T02:25:39.202Z,99.99
2023-05-10T02:26:39.119Z,99.99
2023-05-10T02:27:39.529Z,99.99
2023-05-10T02:28:39.029Z,99.99
2023-05-10T02:37:29.546Z,99.99
2023-05-10T02:38:28.914Z,99.99
2023-05-10T02:39:28.843Z,99.99
2023-05-10T02:40:29.054Z,99.99
2023-05-10T02:41:28.883Z,99.99
2023-05-10T02:42:28.607Z,99.99
2023-05-10T02:43:28.573Z,99.99
2023-05-10T02:53:03.515Z,99.99
2023-05-10T02:54:03.427Z,99.99
2023-05-10T02:55:03.309Z,99.99
2023-05-10T02:58:29.091Z,99.99
2023-05-10T02:59:28.982Z,99.99
2023-05-10T03:00:29.258Z,99.99
2023-05-10T03:01:28.861Z,99.99
2023-05-10T03:02:28.806Z,99.99
2023-05-10T03:03:28.680Z,99.99
2023-05-10T03:04:28.615Z,99.99
2023-05-10T03:05:28.515Z,99.99
2023-05-10T04:15:28.043Z,99.99
2023-05-10T04:16:25.565Z,99.99
2023-05-10T04:18:25.785Z,99.99
2023-05-10T04:19:25.307Z,99.99
2023-05-10T04:20:25.229Z,99.99
2023-05-10T04:21:25.149Z,99.99
2023-05-10T04:24:26.125Z,99.99
2023-05-10T04:54:42.360Z,99.99
2023-05-10T06:31:21.216Z,99.99
2023-05-10T06:32:20.901Z,99.99
2023-05-10T06:33:21.634Z,99.99
2023-05-10T06:39:19.866Z,99.99
2023-05-10T06:40:19.645Z,99.99
2023-05-10T06:41:19.567Z,99.99
2023-05-10T06:42:19.829Z,99.99
2023-05-10T06:43:19.411Z,99.99
2023-05-10T06:44:19.335Z,99.99
2023-05-10T06:45:19.518Z,99.99
2023-05-10T06:46:19.193Z,99.99
2023-05-10T06:47:19.273Z,99.99
2023-05-10T06:48:19.111Z,99.99
2023-05-10T06:49:18.947Z,99.99
2023-05-10T06:50:18.867Z,99.99
2023-05-10T06:51:19.130Z,99.99
2023-05-10T06:52:18.748Z,99.99
2023-05-10T06:53:18.678Z,99.99
2023-05-10T06:54:18.642Z,99.99
2023-05-10T06:55:18.656Z,99.99
2023-05-10T06:56:18.410Z,99.99
2023-05-10T06:57:30.555Z,99.99
2023-05-10T06:58:18.251Z,99.99
2023-05-10T06:59:18.223Z,99.99
2023-05-10T07:00:18.284Z,99.99
2023-05-10T07:01:18.127Z,99.99
2023-05-10T07:02:18.298Z,99.99
2023-05-10T07:03:18.028Z,99.99
2023-05-10T07:04:17.832Z,99.99
2023-05-10T07:05:17.919Z,99.99
2023-05-10T07:06:29.385Z,99.99
2023-05-10T07:07:17.553Z,99.99
2023-05-10T07:08:17.477Z,99.99
2023-05-10T07:09:17.745Z,99.99
2023-05-10T07:11:17.501Z,99.99
2023-05-10T07:15:17.266Z,99.99
2023-05-10T07:16:16.936Z,99.99
2023-05-10T07:17:16.799Z,99.99
2023-05-10T07:18:16.728Z,99.99
2023-05-10T07:19:16.674Z,99.99
2023-05-10T07:20:16.581Z,99.99
2023-05-10T07:21:16.490Z,99.99
2023-05-10T07:22:16.418Z,99.99
2023-05-10T07:23:16.326Z,99.99
2023-05-10T07:24:16.248Z,99.99
2023-05-10T07:25:16.370Z,99.99
2023-05-10T07:26:16.141Z,99.99
2023-05-10T07:27:16.020Z,99.99
2023-05-10T07:28:15.938Z,99.99
2023-05-10T07:29:15.869Z,99.99
2023-05-10T07:30:15.790Z,99.99
2023-05-10T07:31:15.709Z,99.99
2023-05-10T07:32:15.737Z,99.99
2023-05-10T07:33:15.638Z,99.99
2023-05-10T07:34:15.482Z,99.99
2023-05-10T07:35:15.581Z,99.99
2023-05-10T07:36:15.331Z,99.99
2023-05-10T07:37:15.254Z,99.99
2023-05-10T07:38:15.209Z,99.99
2023-05-10T07:39:21.350Z,99.99
2023-05-10T07:41:37.532Z,99.99
2023-05-10T07:42:37.457Z,99.99
2023-05-10T07:43:37.378Z,99.99
2023-05-10T07:44:37.302Z,99.99
2023-05-10T07:45:37.248Z,99.99
2023-05-10T07:46:37.152Z,99.99
2023-05-10T07:47:37.146Z,99.99
2023-05-10T07:48:37.000Z,99.99
2023-05-10T07:49:36.921Z,99.99
2023-05-10T07:50:37.067Z,99.99
2023-05-10T07:51:36.766Z,99.99
2023-05-10T07:52:36.748Z,99.99
2023-05-10T07:53:37.631Z,99.99
2023-05-10T07:54:36.537Z,99.99
2023-05-10T07:55:36.613Z,99.99
2023-05-10T07:56:36.419Z,99.99
2023-05-10T07:57:36.347Z,99.99
2023-05-10T07:58:36.231Z,99.99
2023-05-10T07:59:36.156Z,99.99
2023-05-10T08:00:36.094Z,99.99
2023-05-10T08:01:36.027Z,99.99
2023-05-10T08:02:36.017Z,99.99
2023-05-10T08:03:35.912Z,99.99
2023-05-10T08:04:35.941Z,99.99
2023-05-10T08:05:35.895Z,99.99
2023-05-10T08:06:35.651Z,99.99
2023-05-10T08:07:35.552Z,99.99
2023-05-10T08:08:35.473Z,99.99
2023-05-10T08:09:35.395Z,99.99
2023-05-10T08:10:35.319Z,99.99
2023-05-10T08:11:35.458Z,99.99
2023-05-10T08:12:35.184Z,99.99
2023-05-10T08:13:35.097Z,99.99
2023-05-10T08:14:35.013Z,99.99
2023-05-10T08:15:34.971Z,99.99
2023-05-10T08:16:34.865Z,99.99
2023-05-10T08:17:34.874Z,99.99
2023-05-10T08:18:34.929Z,99.99
2023-05-10T08:19:34.648Z,99.99
2023-05-10T08:20:34.571Z,99.99
2023-05-10T08:21:34.490Z,99.99
2023-05-10T08:22:34.472Z,99.99
2023-05-10T08:23:34.339Z,99.99
2023-05-10T08:24:34.264Z,99.99
2023-05-10T08:25:34.205Z,99.99
2023-05-10T08:26:34.110Z,99.99
2023-05-10T08:27:34.063Z,99.99
2023-05-10T08:28:33.956Z,99.99
2023-05-10T08:29:46.263Z,99.99
2023-05-10T08:30:33.849Z,99.99
2023-05-10T08:31:33.783Z,99.99
2023-05-10T08:32:33.748Z,99.99
2023-05-10T08:33:33.635Z,99.99
2023-05-10T08:34:33.761Z,99.99
2023-05-10T08:35:33.462Z,99.99
2023-05-10T08:37:33.271Z,99.99
2023-05-10T08:38:33.232Z,99.99
2023-05-10T08:39:33.129Z,99.99
2023-05-10T08:40:33.081Z,99.99
2023-05-10T08:41:32.973Z,99.99
2023-05-10T08:42:32.902Z,99.99
2023-05-10T08:43:32.827Z,99.99
2023-05-10T08:44:32.761Z,99.99
2023-05-10T08:45:32.670Z,99.99
2023-05-10T08:46:32.614Z,99.99
2023-05-10T08:47:33.014Z,99.99
2023-05-10T08:48:32.449Z,99.99
2023-05-10T08:49:32.454Z,99.99
2023-05-10T08:51:32.248Z,99.99
2023-05-10T08:52:32.136Z,99.99
2023-05-10T08:53:32.361Z,99.99
2023-05-10T08:54:32.025Z,99.99
2023-05-10T08:55:32.114Z,99.99
2023-05-10T08:56:31.870Z,99.99
2023-05-10T08:57:31.995Z,99.99
2023-05-10T09:01:31.968Z,99.99
2023-05-10T09:05:31.458Z,99.99
2023-05-10T09:07:31.952Z,99.99
2023-05-10T09:08:30.958Z,99.99
2023-05-10T09:10:31.449Z,99.99
2023-05-10T09:24:30.052Z,99.99
2023-05-10T09:33:29.316Z,99.99
2023-05-10T09:36:29.239Z,99.99
2023-05-10T09:39:29.220Z,99.99
2023-05-10T09:41:41.601Z,99.99
2023-05-10T09:43:28.715Z,99.99
2023-05-10T09:44:28.663Z,99.99
2023-05-10T09:45:28.155Z,99.99
2023-05-10T09:46:28.425Z,99.99
2023-05-10T09:47:28.238Z,99.99
2023-05-10T09:49:27.859Z,99.99
2023-05-10T09:51:27.705Z,99.99
2023-05-10T09:52:27.632Z,99.99
2023-05-10T09:53:28.073Z,99.99
2023-05-10T09:54:27.483Z,99.99
2023-05-10T09:58:03.048Z,99.99
2023-05-10T09:59:02.950Z,99.99
2023-05-10T10:00:02.877Z,99.99
2023-05-10T10:01:03.349Z,99.99
2023-05-10T10:02:02.871Z,99.99
2023-05-10T10:03:02.777Z,99.99
2023-05-10T10:04:02.622Z,99.99
2023-05-10T10:06:02.429Z,99.99
2023-05-10T10:07:02.359Z,99.99
2023-05-10T10:08:02.286Z,99.99
2023-05-10T10:09:02.207Z,99.99
2023-05-10T10:10:02.128Z,99.99
2023-05-10T10:11:02.067Z,99.99
2023-05-10T10:12:02.024Z,99.99
2023-05-10T10:13:01.917Z,99.99
2023-05-10T10:14:01.844Z,99.99
2023-05-10T10:19:25.601Z,99.99
2023-05-10T10:20:25.504Z,99.99
2023-05-10T10:21:25.454Z,99.99
2023-05-10T10:22:25.363Z,99.99
2023-05-10T10:23:25.285Z,99.99
2023-05-10T10:24:25.209Z,99.99
2023-05-10T10:25:25.141Z,99.99
2023-05-10T10:26:25.076Z,99.99
2023-05-10T10:27:24.983Z,99.99
2023-05-10T10:28:26.134Z,99.99
2023-05-10T10:29:24.839Z,99.99
2023-05-10T10:30:24.786Z,99.99
2023-05-10T10:31:24.756Z,99.99
2023-05-10T10:32:24.694Z,99.99
2023-05-10T10:33:28.788Z,99.99
2023-05-10T10:34:24.464Z,99.99
2023-05-10T10:35:24.409Z,99.99
2023-05-10T10:36:24.313Z,99.99
2023-05-10T10:37:24.246Z,99.99
2023-05-10T10:38:24.164Z,99.99
2023-05-10T10:39:24.119Z,99.99
2023-05-10T10:40:24.015Z,99.99
2023-05-10T10:41:23.944Z,99.99
2023-05-10T10:42:23.867Z,99.99
2023-05-10T10:43:23.798Z,99.99
2023-05-10T10:44:23.725Z,99.99
2023-05-10T10:45:23.648Z,99.99
2023-05-10T10:46:23.587Z,99.99
2023-05-10T10:47:23.531Z,99.99
2023-05-10T10:48:23.521Z,99.99
2023-05-10T10:49:23.350Z,99.99
2023-05-10T10:50:23.276Z,99.99
2023-05-10T10:51:23.220Z,99.99
2023-05-10T10:52:23.161Z,99.99
2023-05-10T10:53:23.143Z,99.99
2023-05-10T10:54:22.977Z,99.99
2023-05-10T10:55:22.930Z,99.99
2023-05-10T10:56:22.831Z,99.99
2023-05-10T10:57:22.998Z,99.99
2023-05-10T10:58:22.923Z,99.99
2023-05-10T10:59:22.659Z,99.99
2023-05-10T11:00:22.576Z,99.99
2023-05-10T11:02:22.642Z,99.99
2023-05-10T11:03:22.901Z,99.99
2023-05-10T11:04:22.281Z,99.99
2023-05-10T11:05:22.501Z,99.99
2023-05-10T11:06:22.637Z,99.99
2023-05-10T11:07:22.039Z,99.99
2023-05-10T11:08:22.060Z,99.99
2023-05-10T11:09:21.870Z,99.99
2023-05-10T11:10:21.842Z,99.99
2023-05-10T11:11:21.718Z,99.99
2023-05-10T11:12:21.991Z,99.99
2023-05-10T11:13:21.572Z,99.99
2023-05-10T11:14:21.498Z,99.99
2023-05-10T11:15:21.438Z,99.99
2023-05-10T11:16:21.532Z,99.99
2023-05-10T11:17:21.276Z,99.99
2023-05-10T11:18:21.344Z,99.99
2023-05-10T11:19:21.221Z,99.99
2023-05-10T11:20:21.252Z,99.99
2023-05-10T11:21:21.633Z,99.99
2023-05-10T11:23:20.866Z,99.99
2023-05-10T11:24:20.754Z,99.99
2023-05-10T11:25:20.691Z,99.99
2023-05-10T11:26:20.641Z,99.99
2023-05-10T11:27:20.552Z,99.99
2023-05-10T11:28:20.469Z,99.99
2023-05-10T11:29:20.487Z,99.99
2023-05-10T11:30:20.632Z,99.99
2023-05-10T11:31:22.990Z,99.99
2023-05-10T11:32:20.416Z,99.99
2023-05-10T11:33:20.095Z,99.99
2023-05-10T11:34:20.021Z,99.99
2023-05-10T11:35:19.946Z,99.87
2023-05-10T11:36:19.876Z,99.99
2023-05-10T11:38:37.715Z,99.99
2023-05-10T11:39:37.593Z,99.99
2023-05-10T11:40:37.524Z,99.99
2023-05-10T11:41:37.449Z,99.99
2023-05-10T11:42:37.381Z,99.99
2023-05-10T11:43:37.304Z,99.99
2023-05-10T11:44:37.268Z,99.99
2023-05-10T11:47:14.869Z,99.99
2023-05-10T11:48:14.816Z,99.99
2023-05-10T11:49:14.771Z,98.86
2023-05-10T11:50:14.796Z,96.75
2023-05-10T11:51:14.574Z,97.52
2023-05-10T11:52:14.504Z,96.47
2023-05-10T11:53:14.432Z,98.24
2023-05-10T11:54:14.372Z,99.30
2023-05-10T11:55:14.306Z,98.43
2023-05-10T11:56:14.205Z,98.91
2023-05-10T11:57:14.168Z,99.99
2023-05-10T11:58:14.075Z,97.19
2023-05-10T11:59:13.993Z,95.45
2023-05-10T12:00:14.083Z,96.85
2023-05-10T12:01:14.234Z,99.25
2023-05-10T12:02:13.765Z,98.86
2023-05-10T12:03:13.792Z,99.87
2023-05-10T12:04:13.764Z,99.10
2023-05-10T12:05:13.550Z,97.61
2023-05-10T12:06:13.473Z,97.09
2023-05-10T12:07:13.402Z,97.96
2023-05-10T12:08:13.327Z,98.24
2023-05-10T12:09:13.248Z,96.61
2023-05-10T12:10:13.327Z,98.24
2023-05-10T12:11:13.101Z,98.43
2023-05-10T12:12:13.231Z,99.68
2023-05-10T12:13:13.010Z,98.05
2023-05-10T12:14:12.887Z,97.52
2023-05-10T12:15:12.816Z,97.96
2023-05-10T12:16:12.745Z,96.42
2023-05-10T12:17:12.661Z,96.42
2023-05-10T12:18:12.692Z,96.99
2023-05-10T12:19:12.754Z,97.76
2023-05-10T12:20:12.557Z,99.99
2023-05-10T12:21:12.416Z,97.86
2023-05-10T12:22:12.292Z,95.07
2023-05-10T12:23:12.217Z,93.63
2023-05-10T12:24:12.149Z,94.01
2023-05-10T12:25:12.070Z,94.69
2023-05-10T12:26:12.020Z,95.12
2023-05-10T12:27:11.919Z,95.89
2023-05-10T12:28:11.871Z,94.59
2023-05-10T12:29:11.778Z,92.72
2023-05-10T12:30:12.117Z,92.29
2023-05-10T12:31:11.630Z,92.05
2023-05-10T12:32:11.593Z,93.82
2023-05-10T12:33:11.565Z,93.05
2023-05-10T12:34:11.414Z,90.59
2023-05-10T12:35:11.340Z,90.59
2023-05-10T12:36:11.280Z,90.59
2023-05-10T12:37:11.205Z,88.92
2023-05-10T12:38:11.124Z,88.92
2023-05-10T12:39:11.056Z,90.31
2023-05-10T12:40:10.994Z,88.87
2023-05-10T12:41:10.992Z,90.46
2023-05-10T12:42:53.457Z,90.17
2023-05-10T12:43:53.285Z,90.46
2023-05-10T12:44:53.177Z,91.52
2023-05-10T12:45:53.120Z,92.19
2023-05-10T12:46:53.028Z,92.24
2023-05-10T12:47:53.204Z,93.92
2023-05-10T12:48:57.634Z,95.45
2023-05-10T12:49:52.857Z,94.11
2023-05-10T12:50:52.941Z,93.39
2023-05-10T12:51:52.900Z,92.91
2023-05-10T12:52:52.594Z,93.97
2023-05-10T12:53:52.572Z,96.37
2023-05-10T12:54:52.442Z,95.41
2023-05-10T12:55:52.371Z,95.79
2023-05-10T12:56:52.299Z,94.74
2023-05-10T12:57:52.222Z,94.88
2023-05-10T12:58:52.173Z,95.46
2023-05-10T12:59:52.065Z,96.51
2023-05-10T13:00:54.691Z,97.47
2023-05-10T13:01:51.963Z,99.77
2023-05-10T13:02:52.092Z,97.81
2023-05-10T13:03:52.053Z,98.29
2023-05-10T13:04:51.753Z,99.99
2023-05-10T13:05:51.665Z,96.85
2023-05-10T13:06:51.588Z,95.55
2023-05-10T13:07:51.512Z,99.25
2023-05-10T13:08:51.439Z,98.91
2023-05-10T13:09:51.360Z,98.82
2023-05-10T13:10:51.292Z,98.33
2023-05-10T13:12:51.810Z,96.32
2023-05-10T13:13:51.715Z,96.89
2023-05-10T13:14:51.624Z,97.95
2023-05-10T13:16:50.921Z,96.56
2023-05-10T14:30:45.432Z,96.13
2023-05-10T14:31:45.367Z,96.75
2023-05-10T14:32:45.199Z,98.38
2023-05-10T14:33:45.112Z,98.82
2023-05-10T14:34:45.036Z,99.20
2023-05-10T14:35:44.965Z,99.73
2023-05-10T14:36:44.898Z,99.99
2023-05-10T14:37:44.822Z,99.91
2023-05-10T14:38:44.739Z,98.77
2023-05-10T14:39:44.661Z,99.99
2023-05-10T14:40:44.626Z,99.58
2023-05-10T14:41:44.511Z,99.99
2023-05-10T14:43:36.934Z,99.99
2023-05-10T14:44:36.855Z,99.99
2023-05-10T14:45:36.862Z,99.99
2023-05-10T14:46:37.063Z,99.99
2023-05-10T14:47:36.841Z,99.99
2023-05-10T14:48:36.547Z,99.99
2023-05-10T14:50:32.272Z,99.99
2023-05-10T14:51:21.702Z,99.99
2023-05-10T14:52:19.002Z,99.91
2023-05-10T14:53:18.979Z,99.99
2023-05-10T14:54:19.104Z,99.99
2023-05-10T14:55:18.880Z,99.99
2023-05-10T14:56:18.934Z,99.99
2023-05-10T14:58:18.584Z,99.99
2023-05-10T14:59:18.502Z,99.99
2023-05-10T15:17:19.749Z,97.71
2023-05-10T15:19:04.544Z,97.38
2023-05-10T15:20:04.637Z,95.41
2023-05-10T15:21:04.382Z,95.60
2023-05-10T15:22:04.302Z,95.79
2023-05-10T15:23:04.230Z,96.99
2023-05-10T15:24:04.151Z,95.70
2023-05-10T15:25:04.084Z,95.60
2023-05-10T15:26:04.007Z,96.37
2023-05-10T15:27:03.933Z,95.60
2023-05-10T15:28:03.854Z,95.60
2023-05-10T15:29:04.006Z,94.74
2023-05-10T15:30:03.997Z,95.03
2023-05-10T15:31:03.873Z,94.83
2023-05-10T15:32:03.762Z,93.39
2023-05-10T15:33:03.632Z,93.63
2023-05-10T15:34:03.418Z,93.59
2023-05-10T15:35:03.332Z,93.77
2023-05-10T15:36:03.257Z,93.77
2023-05-10T15:37:03.183Z,97.04
2023-05-10T15:38:03.114Z,97.04
2023-05-10T15:39:03.033Z,94.35
2023-05-10T15:40:03.002Z,93.68
2023-05-10T15:41:02.889Z,97.14
2023-05-10T15:42:02.811Z,95.31
2023-05-10T15:43:02.741Z,94.74
2023-05-10T15:44:02.668Z,93.77
2023-05-10T15:45:02.590Z,93.63
2023-05-10T15:46:02.514Z,94.98
2023-05-10T15:47:02.467Z,95.84
2023-05-10T15:48:02.384Z,95.94
2023-05-10T15:49:02.315Z,95.65
2023-05-10T15:50:02.211Z,96.80
2023-05-10T15:51:02.142Z,95.75
2023-05-10T15:53:00.649Z,95.84
2023-05-10T15:54:06.344Z,95.65
2023-05-10T15:55:00.516Z,95.36
2023-05-10T15:56:00.426Z,96.32
2023-05-10T15:57:00.640Z,96.85
2023-05-10T15:58:00.270Z,96.37
2023-05-10T15:59:00.189Z,97.24
2023-05-10T16:00:00.164Z,93.30
2023-05-10T16:01:00.055Z,94.54
2023-05-10T16:02:00.020Z,95.50
2023-05-10T16:02:59.997Z,95.50
2023-05-10T16:04:00.019Z,95.79
2023-05-10T16:04:59.815Z,94.83
2023-05-10T16:05:59.669Z,91.57
2023-05-10T16:06:59.596Z,92.82
2023-05-10T16:07:59.520Z,92.24
2023-05-10T16:08:59.451Z,93.59
2023-05-10T16:10:08.460Z,94.16
2023-05-10T16:10:59.302Z,93.39
2023-05-10T16:11:59.233Z,93.54
2023-05-10T16:12:59.151Z,93.44
2023-05-10T16:13:59.085Z,93.15
2023-05-10T16:14:59.003Z,92.29
2023-05-10T16:15:58.974Z,92.57
2023-05-10T16:16:58.968Z,93.82
2023-05-10T16:17:58.867Z,92.57
2023-05-10T16:18:58.748Z,92.10
2023-05-10T16:19:58.633Z,90.75
2023-05-10T16:20:58.577Z,90.84
2023-05-10T16:21:58.500Z,91.57
2023-05-10T16:22:58.422Z,92.77
2023-05-10T16:23:58.337Z,92.96
2023-05-10T16:24:58.271Z,95.65
2023-05-10T16:25:58.192Z,95.07
2023-05-10T16:26:58.119Z,91.13
2023-05-10T16:27:58.038Z,90.66
2023-05-10T16:28:57.984Z,91.04
2023-05-10T16:29:57.895Z,93.25
2023-05-10T16:30:57.859Z,92.29
2023-05-10T16:31:57.766Z,92.57
2023-05-10T16:32:57.701Z,92.63
2023-05-10T16:33:57.598Z,91.76
2023-05-10T16:34:57.522Z,91.09
2023-05-10T16:35:57.451Z,91.47
2023-05-10T16:36:57.397Z,90.08
2023-05-10T16:37:57.306Z,90.13
2023-05-10T16:38:57.227Z,91.28
2023-05-10T16:39:57.171Z,89.26
2023-05-10T16:40:57.080Z,89.17
2023-05-10T16:41:59.634Z,90.42
2023-05-10T16:42:56.930Z,91.19
2023-05-10T16:43:56.857Z,88.93
2023-05-10T16:44:56.789Z,90.95
2023-05-10T16:45:56.784Z,92.00
2023-05-10T16:46:56.636Z,92.86
2023-05-10T16:47:56.585Z,94.59
2023-05-10T16:49:56.916Z,92.29
2023-05-10T16:50:56.372Z,93.35
2023-05-10T16:51:56.264Z,94.12
2023-05-10T16:52:56.205Z,94.88
2023-05-10T16:53:56.133Z,94.02
2023-05-10T16:55:38.798Z,91.72
2023-05-10T16:56:38.719Z,93.06
2023-05-10T16:57:38.645Z,91.72
2023-05-10T16:58:38.591Z,91.33
2023-05-10T16:59:38.491Z,90.95
2023-05-10T17:00:38.420Z,93.15
2023-05-10T17:01:38.410Z,89.32
2023-05-10T17:02:38.328Z,88.26
2023-05-10T17:03:38.330Z,91.19
2023-05-10T17:04:38.129Z,92.05
2023-05-10T17:05:38.160Z,90.75
2023-05-10T17:06:37.966Z,92.29
2023-05-10T17:07:37.897Z,92.00
2023-05-10T17:08:37.840Z,92.86
2023-05-10T17:09:37.757Z,93.54
2023-05-10T17:10:37.674Z,94.88
2023-05-10T17:11:37.598Z,93.54
2023-05-10T17:12:37.525Z,93.82
2023-05-10T17:13:37.451Z,94.40
2023-05-10T17:14:37.377Z,93.54
2023-05-10T17:15:37.355Z,94.12
2023-05-10T17:16:37.280Z,89.51
2023-05-10T17:17:37.518Z,89.41
2023-05-10T17:18:37.112Z,89.51
2023-05-10T17:19:37.009Z,91.05
2023-05-10T17:20:36.932Z,93.25
2023-05-10T17:21:36.889Z,92.96
2023-05-10T17:22:37.524Z,93.78
2023-05-10T17:23:36.709Z,93.78
2023-05-10T17:24:37.094Z,92.72
2023-05-10T17:28:37.025Z,96.75
2023-05-10T17:29:36.551Z,95.98
2023-05-10T17:30:36.185Z,96.32
2023-05-10T17:31:36.145Z,95.84
2023-05-10T17:32:36.387Z,95.56
2023-05-10T17:33:35.957Z,95.26
2023-05-10T17:34:35.882Z,97.90
2023-05-10T17:35:35.851Z,98.00
2023-05-10T17:36:35.733Z,97.47
2023-05-10T17:37:35.658Z,96.61
2023-05-10T17:38:35.767Z,96.42
2023-05-10T17:39:35.960Z,97.47
2023-05-10T17:41:35.390Z,99.99
2023-05-10T17:42:35.323Z,99.99
2023-05-10T17:43:35.409Z,99.99
2023-05-10T17:44:35.165Z,99.99
2023-05-10T17:45:35.327Z,99.99
2023-05-10T17:46:35.020Z,99.99
2023-05-10T17:47:34.973Z,97.71
2023-05-10T17:48:34.828Z,99.99
2023-05-10T17:50:34.683Z,99.99
2023-05-10T17:51:34.635Z,99.99
2023-05-10T17:52:34.528Z,96.84
2023-05-10T17:53:34.453Z,95.79
2023-05-10T17:54:34.406Z,99.99
2023-05-10T17:55:34.545Z,99.99
2023-05-10T17:56:34.242Z,99.99
2023-05-10T17:57:34.534Z,99.99
2023-05-10T17:58:34.066Z,99.99
2023-05-10T17:59:34.001Z,99.99
2023-05-10T18:00:33.958Z,99.99
2023-05-10T18:01:33.877Z,99.99
2023-05-10T18:02:33.836Z,99.99
2023-05-10T18:03:33.689Z,99.99
2023-05-10T18:04:33.687Z,99.99
2023-05-10T18:05:33.577Z,99.99
2023-05-10T18:06:33.459Z,99.99
2023-05-10T18:07:33.383Z,99.99
2023-05-10T18:08:33.307Z,99.99
2023-05-10T18:09:33.267Z,99.99
2023-05-10T18:10:33.155Z,99.99
2023-05-10T18:11:33.075Z,99.99
2023-05-10T18:12:33.061Z,99.99
2023-05-10T18:13:33.271Z,99.99
2023-05-10T18:14:40.651Z,99.99
2023-05-10T18:15:32.811Z,99.99
2023-05-10T18:16:32.717Z,99.99
2023-05-10T18:18:32.817Z,99.99
2023-05-10T18:19:32.501Z,99.99
2023-05-10T18:21:32.312Z,99.99
2023-05-10T18:22:32.268Z,99.99
2023-05-10T18:23:32.580Z,99.99
2023-05-10T18:25:32.043Z,99.99
2023-05-10T18:26:31.965Z,99.99
2023-05-10T18:27:32.053Z,99.99
2023-05-10T18:28:31.774Z,99.99
2023-05-10T18:29:31.758Z,99.99
2023-05-10T18:30:31.859Z,99.99
2023-05-10T18:31:31.652Z,99.99
2023-05-10T18:32:31.573Z,99.99
2023-05-10T18:33:31.697Z,99.99
2023-05-10T18:34:31.553Z,99.99
2023-05-10T18:35:31.229Z,99.99
2023-05-10T18:36:31.190Z,99.99
2023-05-10T18:37:31.315Z,99.99
2023-05-10T18:38:31.543Z,99.99
2023-05-10T18:39:31.683Z,99.99
2023-05-10T18:40:30.893Z,99.99
2023-05-10T18:42:30.726Z,99.99
2023-05-10T18:50:55.941Z,99.99
2023-05-10T18:56:38.196Z,99.99
2023-05-10T19:02:37.751Z,99.99
2023-05-10T19:03:37.411Z,99.99
2023-05-10T19:04:37.390Z,99.99
2023-05-10T19:05:37.243Z,99.99
2023-05-10T19:06:37.199Z,99.99
2023-05-10T19:07:37.082Z,99.99
2023-05-10T19:08:37.408Z,99.99
2023-05-10T19:18:37.831Z,99.99
2023-05-10T19:19:36.176Z,99.99
2023-05-10T19:20:36.663Z,99.99
2023-05-10T19:21:36.214Z,99.99
2023-05-10T19:23:36.605Z,99.99
2023-05-10T19:24:35.803Z,99.99
2023-05-10T19:25:35.707Z,99.99
2023-05-10T19:26:36.298Z,99.99
2023-05-10T19:28:17.986Z,99.99
2023-05-10T19:29:17.912Z,99.99
2023-05-10T19:30:18.077Z,99.99
2023-05-10T19:31:17.795Z,99.99
2023-05-10T19:32:17.671Z,99.99
2023-05-10T19:33:17.827Z,99.99
2023-05-10T19:34:17.524Z,99.99
2023-05-10T19:35:17.952Z,99.99
2023-05-10T19:36:17.610Z,99.99
2023-05-10T19:37:17.278Z,99.99
2023-05-10T19:38:17.199Z,99.99
2023-05-10T19:39:17.134Z,99.99
2023-05-10T19:40:17.236Z,99.99
2023-05-10T19:41:16.956Z,99.99
2023-05-10T19:42:17.866Z,99.99
2023-05-10T19:43:16.954Z,99.99
2023-05-10T19:44:16.755Z,99.99
2023-05-10T19:45:17.191Z,99.99
2023-05-10T19:46:17.940Z,99.99
2023-05-10T19:47:16.530Z,99.99
2023-05-10T19:48:16.404Z,99.99
2023-05-10T19:49:16.326Z,99.99
2023-05-10T19:50:16.809Z,99.99
2023-05-10T19:51:16.170Z,99.99
2023-05-10T19:52:16.097Z,99.99
2023-05-10T19:53:16.285Z,99.99
2023-05-10T19:54:15.928Z,99.99
2023-05-10T19:55:16.205Z,99.99
2023-05-10T19:56:15.774Z,99.99
2023-05-10T19:57:15.689Z,99.99
2023-05-10T19:58:15.610Z,99.99
2023-05-10T19:59:15.535Z,99.99
2023-05-10T20:00:15.455Z,99.99
2023-05-10T20:01:15.492Z,99.99
2023-05-10T20:02:15.295Z,99.99
2023-05-10T20:03:15.235Z,99.99
2023-05-10T20:04:15.161Z,99.99
2023-05-10T20:05:15.158Z,99.99
2023-05-10T20:06:14.985Z,99.99
2023-05-10T20:07:14.892Z,99.99
2023-05-10T20:08:14.818Z,99.99
2023-05-10T20:09:14.738Z,99.99
2023-05-10T20:10:14.659Z,99.99
2023-05-10T20:11:14.601Z,99.99
2023-05-10T20:12:14.502Z,99.99
2023-05-10T20:13:14.419Z,99.99
2023-05-10T20:14:14.397Z,99.99
2023-05-10T20:15:14.284Z,99.99
2023-05-10T20:16:14.475Z,99.99
2023-05-10T20:17:14.104Z,99.99
2023-05-10T20:18:14.909Z,99.99
2023-05-10T20:19:14.094Z,99.99
2023-05-10T20:20:13.862Z,99.99
2023-05-10T20:21:13.789Z,99.99
2023-05-10T20:22:13.712Z,99.99
2023-05-10T20:23:13.626Z,99.99
2023-05-10T20:24:13.556Z,99.99
2023-05-10T20:25:13.482Z,99.99
2023-05-10T20:26:13.391Z,99.99
2023-05-10T20:27:13.349Z,99.99
2023-05-10T20:28:13.248Z,99.99
2023-05-10T20:29:13.176Z,99.99
2023-05-10T20:30:13.090Z,99.99
2023-05-10T20:31:13.012Z,99.99
2023-05-10T20:32:12.912Z,99.99
2023-05-10T20:33:12.880Z,99.99
2023-05-10T20:34:12.761Z,99.99
2023-05-10T20:35:12.684Z,99.99
2023-05-10T20:36:12.748Z,99.99
2023-05-10T20:37:12.515Z,99.99
2023-05-10T20:38:12.494Z,99.99
2023-05-10T20:39:12.376Z,99.99
2023-05-10T20:40:12.285Z,99.99
2023-05-10T20:41:12.204Z,99.99
2023-05-10T20:42:12.128Z,99.99
2023-05-10T20:43:12.090Z,99.99
2023-05-10T20:44:11.962Z,99.99
2023-05-10T20:45:11.885Z,99.99
2023-05-10T20:46:11.812Z,99.99
2023-05-10T20:47:11.724Z,99.99
2023-05-10T20:48:11.648Z,99.99
2023-05-10T20:49:11.578Z,99.99
2023-05-10T20:50:11.491Z,99.99
2023-05-10T20:51:11.555Z,99.99
2023-05-10T20:52:11.344Z,99.99
2023-05-10T20:53:11.264Z,99.99
2023-05-10T20:54:11.168Z,99.99